Terminal Aerodrome Forecast
Issued by NWS Portland, OR

Home | Current Version | Previous Version | Text Only | Print | Product List | Glossary On
Versions: 1 2 3 4 5 6 7 8 9 10 11 12 13 14 15 16 17 18 19 20 21 22 23 24 25 26 27 28 29 30
000
FTUS46 KPQR 160751 AAA
TAFAST
TAF AMD
KAST 160751Z 1608/1706 19010KT P6SM VCSH FEW015 BKN025 OVC035
      TEMPO 1608/1612 -SHRA SCT006 BKN018 OVC035
     FM161700 19009KT P6SM OVC060=

USA.gov is the U.S. government's official web portal to all federal, state and local government web resources and services.